Latest Weather Observations for Fowlers Gap

IDN60801

Issued at 11:03 pm EDT Sunday 1 March 2015 (issued every 30 minutes, with the page automatically refreshed every 10 minutes)

About weather observations | Map of weather stations | Latest weather observations for NSW | Other Formats
Station Details ID: 046128 Name: FOWLERS GAP AWS Lat: -31.09 Lon: 141.70 Height: 181.0 m
Data from the previous 72 hours. | See also: Recent months at Fowlers Gap
Date/Time
EDT
Temp
°C
App
Temp
°C
Dew
Point
Rel
Hum
%
Delta-T
°C
Wind Press
QNH
hPa
Press
MSL
hPa
Rain
since 9 am
mm
Dir
 
Spd
km/h
Gust
km/h
Spd
kts
Gust
kts
01/11:00pm 23.1 17.4 -0.4 21 10.7 SSE 19 24 10 13 1013.1 1012.3 0.0
01/10:30pm 24.1 18.3 -0.2 20 11.2 SSE 20 26 11 14 1012.9 1012.1 0.0
01/10:00pm 25.0 18.8 -0.2 19 11.7 SSE 22 30 12 16 1012.8 1012.0 0.0
01/09:30pm 25.5 19.6 -0.5 18 12.0 SSE 20 30 11 16 1012.5 1011.7 0.0
01/09:00pm 26.1 19.8 -0.8 17 12.4 SSE 22 30 12 16 1012.2 1011.4 0.0
01/08:30pm 26.8 20.5 -1.1 16 12.9 SSE 22 30 12 16 1011.8 1011.0 0.0
01/08:00pm 27.6 20.5 -1.3 15 13.4 SSE 26 37 14 20 1011.6 1010.7 0.0
01/07:30pm 28.6 21.2 -0.5 15 13.7 SE 28 37 15 20 1011.4 1010.5 0.0
01/07:00pm 29.1 22.0 1.6 17 13.5 SSE 28 37 15 20 1011.1 1010.2 0.0
01/06:30pm 29.6 22.6 2.0 17 13.7 SE 28 41 15 22 1011.0 1010.1 0.0
01/06:00pm 30.1 21.8 -0.3 14 14.6 S 33 43 18 23 1010.7 1009.8 0.0
01/05:30pm 30.8 24.1 1.2 15 14.6 SSE 26 39 14 21 1010.6 1009.7 0.0
01/05:04pm 30.1 23.2 2.4 17 13.9 SSE 28 46 15 25 1010.5 1009.6 0.0
01/05:00pm 30.1 22.9 3.2 18 13.7 SSE 30 39 16 21 1010.6 1009.7 0.0
01/04:30pm 29.5 23.2 5.6 22 12.6 SSE 28 41 15 22 1010.6 1009.7 0.0
01/04:00pm 29.4 22.7 7.3 25 12.0 SSE 32 41 17 22 1010.8 1009.9 0.0
01/03:30pm 29.0 22.5 8.1 27 11.5 SSE 32 41 17 22 1011.0 1010.1 0.0
01/03:00pm 29.6 23.8 8.1 26 11.9 SSE 28 44 15 24 1011.3 1010.4 0.0
01/02:30pm 28.2 22.0 8.0 28 11.0 SSE 30 43 16 23 1011.6 1010.7 0.0
01/02:00pm 27.4 20.8 7.8 29 10.6 SSE 32 46 17 25 1011.8 1011.0 0.0
01/01:30pm 27.0 20.3 8.0 30 10.3 S 33 44 18 24 1012.0 1011.2 0.0
01/01:13pm 27.1 21.1 8.5 31 10.2 SSE 30 48 16 26 1012.2 1011.4 0.0
01/01:00pm 26.2 19.0 7.7 31 9.9 SSE 35 46 19 25 1012.4 1011.6 0.0
01/12:30pm 26.0 19.3 8.0 32 9.7 SSE 33 46 18 25 1012.6 1011.8 0.0
01/12:00pm 24.4 17.3 8.0 35 8.8 SSE 35 46 19 25 1012.9 1012.1 0.0
01/11:43am 24.4 17.8 8.4 36 8.6 SSE 33 52 18 28 1012.9 1012.1 0.0
01/11:30am 23.9 16.5 8.3 37 8.4 SSE 37 48 20 26 1012.8 1012.0 0.0
01/11:00am 23.0 15.5 9.4 42 7.4 SSE 39 50 21 27 1012.6 1011.8 0.0
01/10:30am 22.3 15.3 9.8 45 6.8 SSE 37 48 20 26 1012.5 1011.4 0.0
01/10:00am 21.3 14.2 10.8 51 5.8 SSE 39 54 21 29 1012.2 1011.1 0.0
01/09:30am 20.8 14.3 11.7 56 5.1 S 37 46 20 25 1011.8 1010.7 0.0
01/09:00am 20.7 14.2 11.6 56 5.1 S 37 50 20 27 1011.4 1010.3 0.0
01/08:30am 20.7 15.2 12.4 59 4.7 S 33 44 18 24 1010.9 1009.8 0.0
01/08:00am 20.7 16.0 13.2 62 4.3 S 30 44 16 24 1010.3 1009.2 0.0
01/07:30am 21.1 17.1 14.0 64 4.2 S 28 39 15 21 1009.6 1008.5 0.0
01/07:00am 21.9 16.7 14.5 63 4.4 S 35 50 19 27 1009.0 1008.0 0.0
01/06:52am 22.1 17.5 14.7 63 4.4 S 32 50 17 27 1008.9 1007.9 0.0
01/06:30am 23.0 18.3 14.3 58 5.2 S 32 39 17 21 1008.6 1007.6 0.0
01/06:00am 23.8 20.3 13.4 52 6.1 S 24 35 13 19 1008.1 1007.0 0.0
01/05:30am 24.6 19.3 13.2 49 6.7 S 33 43 18 23 1007.7 1006.6 0.0
01/05:00am 25.4 21.9 12.3 44 7.6 S 22 32 12 17 1007.1 1006.0 0.0
01/04:30am 26.2 21.6 12.3 42 8.1 SSE 28 44 15 24 1006.6 1005.5 0.0
01/04:00am 26.9 22.0 11.4 38 8.9 SSE 28 39 15 21 1006.2 1005.1 0.0
01/03:30am 27.9 22.9 11.0 35 9.7 SSE 28 39 15 21 1006.1 1005.0 0.0
01/03:17am 28.3 23.3 10.9 34 10.0 SSE 28 44 15 24 1006.1 1005.0 0.0
01/03:00am 28.5 24.8 10.2 32 10.4 SSE 20 26 11 14 1006.1 1005.0 0.0
01/02:30am 29.3 24.9 10.4 31 10.8 SSE 24 32 13 17 1006.0 1004.9 0.0
01/02:00am 30.2 25.6 9.7 28 11.7 SSE 24 32 13 17 1005.9 1004.8 0.0
01/01:30am 30.2 24.4 8.0 25 12.3 SSW 28 39 15 21 1006.1 1005.0 0.0
01/01:23am 28.9 25.2 8.0 27 11.5 W 17 37 9 20 1006.0 1004.9 0.0
01/01:00am 29.8 26.9 8.2 26 12.0 NNW 13 15 7 8 1005.1 1004.0 0.0
01/12:30am 28.8 27.1 8.5 28 11.2 NW 7 11 4 6 1005.2 1004.1 0.0
01/12:00am 30.0 28.3 8.4 26 12.0 NNW 7 9 4 5 1005.4 1004.3 0.0
 
Date/Time
EDT
Temp
°C
App
Temp
°C
Dew
Point
Rel
Hum
%
Delta-T
°C
Wind Press
QNH
hPa
Press
MSL
hPa
Rain
since 9 am
mm
Dir
 
Spd
km/h
Gust
km/h
Spd
kts
Gust
kts
28/11:30pm 30.8 28.4 8.5 25 12.4 NNW 11 13 6 7 1005.3 1004.2 0.0
28/11:00pm 30.6 28.7 7.7 24 12.6 NNW 7 9 4 5 1005.4 1004.3 0.0
28/10:30pm 30.9 30.1 8.0 24 12.7 N 2 11 1 6 1005.4 1004.3 0.0
28/10:00pm 31.4 30.5 7.8 23 13.1 NNW 2 7 1 4 1005.4 1004.3 0.0
28/09:30pm 32.4 32.1 8.6 23 13.4 CALM 0 0 0 0 1005.2 1004.1 0.0
28/09:00pm 34.1 33.6 8.0 20 14.7 CALM 0 2 0 1 1005.0 1003.9 0.0
28/08:30pm 35.4 33.7 7.5 18 15.7 NW 6 9 3 5 1004.9 1003.8 0.0
28/08:00pm 36.3 35.5 6.5 16 16.6 CALM 0 0 0 0 1004.5 1003.4 0.0
28/07:30pm 37.1 34.7 7.1 16 16.9 NW 9 11 5 6 1004.4 1003.3 0.0
28/07:00pm 38.3 34.2 6.1 14 18.0 W 17 24 9 13 1004.2 1003.1 0.0
28/06:30pm 38.4 36.4 6.2 14 18.0 SSW 6 15 3 8 1004.0 1002.9 0.0
28/06:00pm 38.6 36.0 6.3 14 18.1 WNW 9 24 5 13 1004.0 1002.9 0.0
28/05:30pm 38.1 34.6 7.0 15 17.6 W 15 22 8 12 1004.0 1002.9 0.0
28/05:00pm 37.8 35.3 6.7 15 17.5 SW 9 19 5 10 1004.1 1003.0 0.0
28/04:30pm 39.0 35.2 7.7 15 17.9 SW 17 30 9 16 1004.3 1003.2 0.0
28/04:00pm 37.2 33.1 6.3 15 17.2 SW 17 32 9 17 1004.6 1003.5 0.0
28/03:30pm 37.5 35.2 7.4 16 17.0 WSW 9 26 5 14 1004.9 1003.8 0.0
28/03:00pm 36.8 33.6 6.9 16 16.8 SW 13 22 7 12 1005.2 1004.1 0.0
28/02:30pm 36.6 33.7 6.7 16 16.7 WSW 11 20 6 11 1005.5 1004.4 0.0
28/02:00pm 37.0 34.8 7.9 17 16.6 SSE 9 15 5 8 1006.0 1004.9 0.0
28/01:30pm 35.7 33.5 7.7 18 15.8 E 9 15 5 8 1006.3 1005.2 0.0
28/01:00pm 35.9 34.1 7.9 18 15.9 SW 7 15 4 8 1006.8 1005.7 0.0
28/12:30pm 34.8 31.8 7.8 19 15.2 N 13 19 7 10 1007.2 1006.1 0.0
28/12:00pm 34.3 31.8 8.1 20 14.8 NNE 11 32 6 17 1007.5 1006.4 0.0
28/11:30am 34.1 31.7 8.7 21 14.4 NNE 11 17 6 9 1007.7 1006.6 0.0
28/11:00am 32.7 29.4 8.2 22 13.8 NE 15 19 8 10 1007.8 1006.7 0.0
28/10:30am 32.4 29.6 8.6 23 13.4 ENE 13 17 7 9 1007.8 1006.7 0.0
28/10:00am 31.1 28.4 8.8 25 12.6 ENE 13 15 7 8 1007.8 1006.7 0.0
28/09:30am 29.3 28.9 9.9 30 11.0 E 2 7 1 4 1007.7 1006.6 0.0
28/09:00am 25.7 24.9 9.5 36 9.0 SSW 4 6 2 3 1007.6 1006.5 0.0
28/08:30am 23.9 24.0 10.2 42 7.6 CALM 0 6 0 3 1007.3 1006.2 0.0
28/08:00am 21.7 21.7 9.9 47 6.5 CALM 0 0 0 0 1006.9 1005.8 0.0
28/07:30am 21.4 21.3 9.6 47 6.4 CALM 0 4 0 2 1006.7 1005.6 0.0
28/07:00am 21.7 20.9 9.6 46 6.6 WNW 4 7 2 4 1006.3 1005.2 0.0
28/06:30am 22.2 22.0 9.0 43 7.1 CALM 0 2 0 1 1006.2 1005.1 0.0
28/06:00am 22.6 21.4 9.4 43 7.2 SW 6 9 3 5 1006.0 1004.9 0.0
28/05:30am 23.8 22.6 9.4 40 7.9 SSW 6 7 3 4 1005.8 1004.7 0.0
28/05:00am 24.2 23.8 9.8 40 8.0 WNW 2 6 1 3 1005.9 1004.8 0.0
28/04:30am 25.2 25.1 9.5 37 8.7 CALM 0 0 0 0 1006.0 1004.9 0.0
28/04:00am 26.2 26.1 9.5 35 9.3 CALM 0 0 0 0 1006.2 1005.1 0.0
28/03:30am 27.0 26.0 8.9 32 10.0 NE 4 6 2 3 1006.3 1005.2 0.0
28/03:00am 27.7 25.8 9.0 31 10.4 NE 9 11 5 6 1006.2 1005.1 0.0
28/02:30am 27.1 27.0 9.5 33 9.8 CALM 0 0 0 0 1006.9 1005.8 0.0
28/02:00am 26.9 26.0 9.3 33 9.8 ENE 4 6 2 3 1007.3 1006.2 0.0
28/01:30am 27.5 27.3 8.9 31 10.3 CALM 0 0 0 0 1007.7 1006.6 0.0
28/01:00am 27.7 27.5 9.0 31 10.4 CALM 0 0 0 0 1007.6 1006.5 0.0
28/12:30am 28.2 26.8 9.0 30 10.7 W 6 6 3 3 1007.9 1006.8 0.0
28/12:00am 28.6 28.3 8.8 29 11.0 CALM 0 0 0 0 1007.9 1006.8 0.0
 
Date/Time
EDT
Temp
°C
App
Temp
°C
Dew
Point
Rel
Hum
%
Delta-T
°C
Wind Press
QNH
hPa
Press
MSL
hPa
Rain
since 9 am
mm
Dir
 
Spd
km/h
Gust
km/h
Spd
kts
Gust
kts
27/11:30pm 30.9 27.8 7.4 23 12.9 ESE 13 19 7 10 1008.2 1007.1 0.0
27/11:00pm 30.2 28.2 8.6 26 12.1 E 9 11 5 6 1008.1 1007.0 0.0
27/10:30pm 30.3 28.3 8.7 26 12.1 E 9 13 5 7 1008.2 1007.1 0.0
27/10:00pm 31.3 28.8 8.3 24 12.9 ESE 11 13 6 7 1008.1 1007.0 0.0
27/09:30pm 31.2 29.1 8.2 24 12.8 ESE 9 11 5 6 1007.8 1006.7 0.0
27/09:00pm 31.7 29.5 8.0 23 13.2 ESE 9 15 5 8 1007.6 1006.5 0.0
27/08:30pm 32.3 29.7 7.9 22 13.6 E 11 13 6 7 1007.2 1006.1 0.0
27/08:00pm 33.3 29.8 7.3 20 14.4 SE 15 20 8 11 1006.9 1005.8 0.0
27/07:30pm 34.0 30.5 7.1 19 14.9 SSE 15 19 8 10 1006.7 1005.6 0.0
27/07:00pm 34.2 30.2 6.5 18 15.3 SE 17 26 9 14 1006.6 1005.5 0.0
27/06:30pm 34.3 30.5 7.4 19 15.0 SE 17 24 9 13 1006.4 1005.3 0.0
27/06:00pm 34.2 31.1 7.3 19 15.0 SSE 13 20 7 11 1006.3 1005.2 0.0
27/05:30pm 34.8 30.7 7.8 19 15.2 SE 19 26 10 14 1006.5 1005.4 0.0
27/05:00pm 34.7 31.7 7.7 19 15.2 S 13 22 7 12 1006.6 1005.5 0.0
27/04:30pm 34.9 30.8 7.9 19 15.2 S 19 30 10 16 1006.6 1005.5 0.0
27/04:00pm 34.6 31.0 8.4 20 14.9 SE 17 28 9 15 1007.1 1006.0 0.0
27/03:30pm 34.2 30.5 8.0 20 14.7 SE 17 28 9 15 1007.6 1006.5 0.0
27/03:00pm 35.1 31.6 8.8 20 15.1 S 17 24 9 13 1008.0 1006.9 0.0
27/02:30pm 34.0 29.7 7.9 20 14.7 SSE 20 33 11 18 1008.3 1007.2 0.0
27/02:00pm 33.6 30.0 8.3 21 14.3 SE 17 28 9 15 1008.8 1007.8 0.0
27/01:30pm 33.2 29.6 9.9 24 13.4 SSE 19 32 10 17 1008.9 1007.9 0.0
27/01:00pm 33.2 30.4 9.9 24 13.5 ESE 15 30 8 16 1009.4 1008.3 0.0
27/12:30pm 32.2 29.2 9.1 24 13.1 SE 15 22 8 12 1010.0 1008.9 0.0
27/12:00pm 31.3 28.4 9.5 26 12.4 E 15 20 8 11 1010.4 1009.3 0.0
27/11:30am 31.0 28.3 10.4 28 11.9 ESE 15 20 8 11 1010.6 1009.5 0.0
27/11:00am 30.3 27.3 10.8 30 11.3 ESE 17 24 9 13 1010.6 1009.5 0.0
27/10:30am 29.3 25.9 10.4 31 10.8 ESE 19 24 10 13 1010.7 1009.6 0.0
27/10:00am 28.7 25.4 10.8 33 10.3 ESE 19 26 10 14 1010.8 1009.7 0.0
27/09:30am 27.6 23.9 10.3 34 9.8 SE 20 26 11 14 1010.6 1009.5 0.0
27/09:00am 25.8 22.5 9.6 36 9.0 SE 17 22 9 12 1010.6 1009.5 0.0
27/08:30am 24.1 21.7 10.0 41 7.8 SSE 13 19 7 10 1010.6 1009.5 0.0
27/08:00am 22.7 19.4 9.5 43 7.2 SSE 17 22 9 12 1010.4 1009.3 0.0
27/07:30am 21.9 19.6 9.1 44 6.9 SSE 11 15 6 8 1010.2 1009.1 0.0
27/07:00am 22.2 19.3 8.0 40 7.5 S 13 20 7 11 1009.8 1008.7 0.0
27/06:30am 22.4 19.3 7.4 38 7.8 S 13 15 7 8 1009.4 1008.3 0.0
27/06:00am 22.5 19.0 7.1 37 8.0 SSE 15 19 8 10 1008.9 1007.9 0.0
27/05:30am 22.1 19.2 6.3 36 8.1 S 11 13 6 7 1008.7 1007.7 0.0
27/05:00am 23.1 19.8 6.4 34 8.6 SSE 13 15 7 8 1008.4 1007.3 0.0
27/04:30am 22.5 19.6 6.3 35 8.3 SSE 11 13 6 7 1008.4 1007.3 0.0
27/04:00am 22.6 19.5 5.5 33 8.7 SSE 11 11 6 6 1008.4 1007.3 0.0
27/03:30am 22.9 20.6 5.8 33 8.7 S 7 9 4 5 1008.6 1007.6 0.0
27/03:00am 22.5 20.4 5.9 34 8.5 S 6 7 3 4 1008.7 1007.7 0.0
27/02:30am 22.9 19.9 5.8 33 8.7 S 11 13 6 7 1008.8 1007.8 0.0
27/02:00am 22.7 21.7 5.6 33 8.7 CALM 0 0 0 0 1009.0 1008.0 0.0
27/01:30am 22.7 21.7 5.6 33 8.7 CALM 0 0 0 0 1009.3 1008.2 0.0
27/01:00am 23.4 22.4 5.8 32 9.0 CALM 0 0 0 0 1009.6 1008.5 0.0
27/12:30am 24.5 22.4 5.8 30 9.6 S 6 9 3 5 1009.8 1008.7 0.0
27/12:00am 25.2 22.5 5.4 28 10.2 SSE 9 11 5 6 1009.7 1008.6 0.0
 
Date/Time
EDT
Temp
°C
App
Temp
°C
Dew
Point
Rel
Hum
%
Delta-T
°C
Wind Press
QNH
hPa
Press
MSL
hPa
Rain
since 9 am
mm
Dir
 
Spd
km/h
Gust
km/h
Spd
kts
Gust
kts
26/11:30pm 25.1 22.2 4.8 27 10.3 S 9 11 5 6 1009.8 1008.7 0.0

Other Formats:

Comma delimited format used in spreadsheet applications
http://www.bom.gov.au/fwo/IDN60801/IDN60801.94686.axf

JavaScript Object Notation format (JSON) in row-major order
http://www.bom.gov.au/fwo/IDN60801/IDN60801.94686.json